Time;durP1;ratioP1;P1;durP2;ratioP2;P2;SDS_P1;SDS_P2;PMS_P1;PMS_P2;Temp;Humidity;BMP_temperature;BMP_pressure;BME280_temperature;BME280_humidity;BME280_pressure;Samples;Min_cycle;Max_cycle;Signal;HPM_P1;HPM_P2
2023/05/12 00:00:06;;;;;;;12.03;4.80;;;14.30;99.90;;;;;;7364613;19;20164;-78
2023/05/12 00:02:32;;;;;;;11.33;6.03;;;14.20;99.90;;;;;;7381578;19;20131;-79
2023/05/12 00:04:58;;;;;;;6.78;3.55;;;14.30;99.90;;;;;;7374853;19;20519;-78
2023/05/12 00:07:23;;;;;;;5.45;3.30;;;14.30;99.90;;;;;;7382309;19;20213;-78
2023/05/12 00:09:49;;;;;;;3.58;2.85;;;14.30;99.90;;;;;;7377977;19;20135;-78
2023/05/12 00:12:15;;;;;;;3.90;3.33;;;14.30;99.90;;;;;;7377166;19;20150;-79
2023/05/12 00:14:41;;;;;;;5.13;3.23;;;14.30;99.90;;;;;;7379006;19;20202;-77
2023/05/12 00:17:07;;;;;;;4.90;3.60;;;14.40;99.90;;;;;;7364947;19;20127;-78
2023/05/12 00:19:34;;;;;;;5.00;3.53;;;14.30;99.90;;;;;;7379048;19;20177;-78
2023/05/12 00:22:00;;;;;;;4.55;3.28;;;14.30;99.90;;;;;;7381360;19;20130;-78
2023/05/12 00:24:26;;;;;;;4.20;3.20;;;14.30;99.90;;;;;;7382112;19;20138;-77
2023/05/12 00:26:53;;;;;;;3.90;3.47;;;14.30;99.90;;;;;;7382101;19;20127;-78
2023/05/12 00:29:19;;;;;;;5.95;3.78;;;14.30;99.90;;;;;;7386473;19;20550;-78
2023/05/12 00:31:44;;;;;;;3.83;3.10;;;14.20;99.90;;;;;;7373940;19;20144;-78
2023/05/12 00:34:10;;;;;;;5.20;3.97;;;14.30;99.90;;;;;;7375900;19;20150;-78
2023/05/12 00:36:36;;;;;;;5.60;3.38;;;14.30;99.90;;;;;;7391347;19;20138;-78
2023/05/12 00:39:02;;;;;;;4.97;3.35;;;14.30;99.90;;;;;;7386128;19;20135;-78
2023/05/12 00:41:28;;;;;;;5.68;4.10;;;14.20;99.90;;;;;;7374899;19;20131;-78
2023/05/12 00:43:54;;;;;;;3.85;3.20;;;14.20;99.90;;;;;;7385402;19;20146;-78
2023/05/12 00:46:22;;;;;;;5.63;4.25;;;14.20;99.90;;;;;;7391017;19;20447;-77
2023/05/12 00:48:49;;;;;;;5.75;3.88;;;14.30;99.90;;;;;;7379343;19;20167;-78
2023/05/12 00:51:15;;;;;;;4.18;3.53;;;14.20;99.90;;;;;;7383351;19;20286;-79
2023/05/12 00:53:42;;;;;;;5.53;4.03;;;14.20;99.90;;;;;;7372859;19;20138;-78
2023/05/12 00:56:08;;;;;;;6.82;4.13;;;14.00;99.90;;;;;;7381528;19;20554;-77
2023/05/12 00:58:34;;;;;;;4.40;3.60;;;14.10;99.90;;;;;;7377521;19;20198;-77
2023/05/12 01:01:00;;;;;;;5.57;4.18;;;14.20;99.90;;;;;;7387885;19;20172;-78
2023/05/12 01:03:26;;;;;;;4.25;3.70;;;14.20;99.90;;;;;;7387385;19;20131;-77
2023/05/12 01:06:25;;;;;;;5.10;3.97;;;14.30;99.90;;;;;;7388712;19;20158;-78
2023/05/12 01:08:52;;;;;;;4.70;4.05;;;14.20;99.90;;;;;;7384381;19;20138;-77
2023/05/12 01:11:18;;;;;;;4.63;4.10;;;14.20;99.90;;;;;;7383917;19;20167;-78
2023/05/12 01:13:44;;;;;;;5.68;4.00;;;14.40;99.90;;;;;;7373876;19;20134;-78
2023/05/12 01:16:13;;;;;;;4.40;3.42;;;14.30;99.90;;;;;;7389627;19;20131;-77
2023/05/12 01:18:41;;;;;;;4.50;3.88;;;14.10;99.90;;;;;;7384992;19;20912;-78
2023/05/12 01:21:07;;;;;;;5.93;4.60;;;14.10;99.90;;;;;;7383185;19;20126;-78
2023/05/12 01:23:38;;;;;;;5.18;4.35;;;14.10;99.90;;;;;;7368673;19;20689;-77
2023/05/12 01:26:08;;;;;;;4.70;4.07;;;14.10;99.90;;;;;;7374237;19;20165;-78
2023/05/12 01:28:35;;;;;;;4.87;4.20;;;14.10;99.90;;;;;;7385914;19;20135;-78
2023/05/12 01:31:04;;;;;;;5.40;4.27;;;14.10;99.90;;;;;;7385770;19;20177;-77
2023/05/12 01:33:30;;;;;;;6.05;4.22;;;14.10;99.90;;;;;;7388268;19;20621;-78
2023/05/12 01:35:55;;;;;;;5.70;4.45;;;14.00;99.90;;;;;;7390949;19;20134;-77
2023/05/12 01:38:21;;;;;;;5.53;4.47;;;14.10;99.90;;;;;;7387548;19;20134;-78
2023/05/12 01:40:47;;;;;;;5.17;4.40;;;14.10;99.90;;;;;;7368151;19;20135;-78
2023/05/12 01:43:13;;;;;;;5.87;4.70;;;14.10;99.90;;;;;;7388605;19;20135;-79
2023/05/12 01:45:39;;;;;;;5.57;4.68;;;13.90;99.90;;;;;;7387078;19;20172;-77
2023/05/12 01:48:07;;;;;;;5.90;4.77;;;13.90;99.90;;;;;;7384779;19;20127;-78
2023/05/12 01:50:35;;;;;;;6.13;5.00;;;14.00;99.90;;;;;;7381444;19;20142;-79
2023/05/12 01:53:01;;;;;;;6.83;4.90;;;14.10;99.90;;;;;;7387212;19;20134;-78
2023/05/12 01:55:27;;;;;;;5.22;4.50;;;14.10;99.90;;;;;;7374601;19;20666;-78
2023/05/12 01:57:53;;;;;;;5.33;4.50;;;14.10;99.90;;;;;;7387264;19;20583;-78
2023/05/12 02:00:20;;;;;;;6.30;4.97;;;14.10;99.90;;;;;;7390055;19;20134;-78
2023/05/12 02:02:48;;;;;;;5.40;4.90;;;14.00;99.90;;;;;;7388097;19;20131;-77
2023/05/12 02:05:14;;;;;;;5.10;4.60;;;14.00;99.90;;;;;;7375545;19;20149;-77
2023/05/12 02:07:40;;;;;;;6.00;4.93;;;14.00;99.90;;;;;;7369233;19;21689;-78
2023/05/12 02:10:10;;;;;;;7.07;5.10;;;14.00;99.90;;;;;;7386773;19;20234;-76
2023/05/12 02:12:36;;;;;;;7.07;4.93;;;14.10;99.90;;;;;;7387513;19;20131;-77
2023/05/12 02:15:02;;;;;;;5.82;5.25;;;14.10;99.90;;;;;;7373160;19;20129;-78
2023/05/12 02:17:30;;;;;;;6.88;5.57;;;14.10;99.90;;;;;;7387607;19;20154;-77
2023/05/12 02:19:56;;;;;;;7.93;5.85;;;14.10;99.90;;;;;;7384895;19;20150;-78
2023/05/12 02:22:22;;;;;;;6.10;5.50;;;14.10;99.90;;;;;;7377092;19;20162;-77
2023/05/12 02:24:47;;;;;;;6.57;5.32;;;14.00;99.90;;;;;;7386964;19;20517;-77
2023/05/12 02:27:13;;;;;;;6.27;5.43;;;14.10;99.90;;;;;;7369995;19;20158;-77
2023/05/12 02:29:39;;;;;;;6.57;5.22;;;14.00;99.90;;;;;;7386432;19;20134;-78
2023/05/12 02:32:05;;;;;;;8.73;6.27;;;14.00;99.90;;;;;;7383777;19;20214;-77
2023/05/12 02:34:30;;;;;;;6.73;5.83;;;13.90;99.90;;;;;;7389749;19;20633;-77
2023/05/12 02:36:56;;;;;;;5.70;4.97;;;13.90;99.90;;;;;;7384198;19;20134;-77
2023/05/12 02:39:22;;;;;;;6.80;5.63;;;13.90;99.90;;;;;;7386366;19;20138;-78
2023/05/12 02:41:47;;;;;;;7.23;6.07;;;14.00;99.90;;;;;;7383474;19;20143;-77
2023/05/12 02:44:15;;;;;;;7.27;5.57;;;14.10;99.90;;;;;;7389107;19;20622;-77
2023/05/12 02:46:41;;;;;;;7.07;6.15;;;13.90;99.90;;;;;;7383244;19;20139;-78
2023/05/12 02:49:08;;;;;;;6.45;5.78;;;13.80;99.90;;;;;;7383373;19;20146;-77
2023/05/12 02:51:34;;;;;;;6.70;5.77;;;13.80;99.90;;;;;;7374662;19;20164;-79
2023/05/12 02:54:00;;;;;;;6.88;5.90;;;13.90;99.90;;;;;;7379632;19;20544;-77
2023/05/12 02:56:25;;;;;;;5.47;4.90;;;13.90;99.90;;;;;;7386843;19;20142;-78
2023/05/12 02:58:52;;;;;;;6.47;5.68;;;13.90;99.90;;;;;;7380265;19;20148;-78
2023/05/12 03:01:18;;;;;;;6.97;6.03;;;13.80;99.90;;;;;;7384235;19;20170;-78
2023/05/12 03:03:43;;;;;;;7.70;5.78;;;13.80;99.90;;;;;;7384575;19;20131;-77
2023/05/12 03:06:09;;;;;;;7.43;6.00;;;13.80;99.90;;;;;;7372375;19;20154;-78
2023/05/12 03:08:35;;;;;;;7.50;6.60;;;13.80;99.90;;;;;;7386809;19;20130;-78
2023/05/12 03:11:01;;;;;;;7.03;6.33;;;13.90;99.90;;;;;;7367600;19;20146;-79
2023/05/12 03:13:26;;;;;;;7.18;5.93;;;13.90;99.90;;;;;;7367531;19;20142;-77
2023/05/12 03:15:53;;;;;;;7.57;6.47;;;13.80;99.90;;;;;;7382386;19;20163;-78
2023/05/12 03:18:19;;;;;;;7.47;6.30;;;13.80;99.90;;;;;;7385452;19;20146;-78
2023/05/12 03:20:44;;;;;;;7.13;6.17;;;13.80;99.90;;;;;;7386585;19;20613;-79
2023/05/12 03:23:10;;;;;;;7.77;6.77;;;13.70;99.90;;;;;;7385103;19;20166;-77
2023/05/12 03:25:36;;;;;;;9.97;7.47;;;13.80;99.90;;;;;;7381190;19;20142;-79
2023/05/12 03:28:02;;;;;;;8.30;7.40;;;14.00;99.90;;;;;;7376308;19;20610;-78
2023/05/12 03:30:28;;;;;;;7.93;6.77;;;13.80;99.90;;;;;;7369239;19;20137;-77
2023/05/12 03:32:54;;;;;;;9.00;7.20;;;13.80;99.90;;;;;;7386271;19;20134;-76
2023/05/12 03:35:22;;;;;;;8.13;6.75;;;13.80;99.90;;;;;;7384774;19;20154;-78
2023/05/12 03:37:48;;;;;;;8.27;7.37;;;13.90;99.90;;;;;;7374141;19;20603;-77
2023/05/12 03:40:17;;;;;;;8.95;7.35;;;13.90;99.90;;;;;;7383274;19;20147;-79
2023/05/12 03:42:44;;;;;;;8.40;7.10;;;14.00;99.90;;;;;;7386301;19;20536;-78
2023/05/12 03:45:10;;;;;;;8.40;7.23;;;13.80;99.90;;;;;;7384698;19;20602;-77
2023/05/12 03:47:36;;;;;;;10.33;7.57;;;13.80;99.90;;;;;;7378330;19;20150;-77
2023/05/12 03:50:02;;;;;;;9.23;6.97;;;13.80;99.90;;;;;;7378633;19;20611;-77
2023/05/12 03:52:27;;;;;;;8.02;6.63;;;13.70;99.90;;;;;;7386881;19;20127;-78
2023/05/12 03:54:53;;;;;;;8.57;6.67;;;13.70;99.90;;;;;;7387029;19;20131;-78
2023/05/12 03:57:19;;;;;;;8.63;7.43;;;13.60;99.90;;;;;;7367428;19;20772;-78
2023/05/12 03:59:45;;;;;;;8.73;6.87;;;13.60;99.90;;;;;;7383754;19;20147;-79
2023/05/12 04:02:11;;;;;;;8.73;7.20;;;13.80;99.90;;;;;;7372559;19;20151;-78
2023/05/12 04:04:37;;;;;;;10.43;6.97;;;13.70;99.90;;;;;;7372745;19;20173;-78
2023/05/12 04:07:04;;;;;;;9.00;7.00;;;13.60;99.90;;;;;;7383497;19;20205;-79
2023/05/12 04:09:33;;;;;;;8.00;6.87;;;13.70;99.90;;;;;;7392973;19;20164;-79
2023/05/12 04:11:59;;;;;;;10.77;7.40;;;13.70;99.90;;;;;;7391382;19;20150;-78
2023/05/12 04:14:24;;;;;;;9.63;7.60;;;13.80;99.90;;;;;;7387126;19;20507;-79
2023/05/12 04:16:50;;;;;;;11.20;7.80;;;13.70;99.90;;;;;;7370856;19;20150;-79
2023/05/12 04:19:16;;;;;;;11.33;7.33;;;13.60;99.90;;;;;;7386182;19;20181;-79
2023/05/12 04:21:44;;;;;;;8.60;6.90;;;13.60;99.90;;;;;;7389428;19;20138;-79
2023/05/12 04:24:11;;;;;;;10.07;7.55;;;13.60;99.90;;;;;;7377264;19;20138;-78
2023/05/12 04:26:36;;;;;;;10.67;7.37;;;13.50;99.90;;;;;;7371614;19;20142;-77
2023/05/12 04:29:02;;;;;;;10.03;7.90;;;13.50;99.90;;;;;;7386723;19;20611;-78
2023/05/12 04:31:28;;;;;;;9.20;7.83;;;13.50;99.90;;;;;;7389271;19;20144;-79
2023/05/12 04:33:54;;;;;;;10.53;7.33;;;13.60;99.90;;;;;;7381897;19;20176;-78
2023/05/12 04:36:20;;;;;;;10.13;7.70;;;13.60;99.90;;;;;;7371427;19;20127;-77
2023/05/12 04:38:46;;;;;;;7.93;6.50;;;13.60;99.90;;;;;;7382344;19;20135;-77
2023/05/12 04:41:12;;;;;;;8.15;6.60;;;13.60;99.90;;;;;;7384280;19;20180;-77
2023/05/12 04:43:38;;;;;;;8.60;6.40;;;13.60;99.90;;;;;;7389610;19;20154;-77
2023/05/12 04:46:04;;;;;;;8.10;7.07;;;13.70;99.90;;;;;;7389290;19;20157;-77
2023/05/12 04:48:30;;;;;;;8.57;7.38;;;13.60;99.90;;;;;;7389915;19;20533;-77
2023/05/12 04:50:59;;;;;;;8.63;7.67;;;13.70;99.90;;;;;;7386529;19;20138;-77
2023/05/12 04:53:25;;;;;;;8.47;7.17;;;13.70;99.90;;;;;;7386908;19;20157;-78
2023/05/12 04:55:51;;;;;;;7.17;6.30;;;13.60;99.90;;;;;;7390179;19;20670;-78
2023/05/12 04:58:18;;;;;;;8.88;6.75;;;13.70;99.90;;;;;;7391088;19;20130;-79
2023/05/12 05:00:44;;;;;;;8.40;7.13;;;13.70;99.90;;;;;;7388810;19;20143;-78
2023/05/12 05:03:10;;;;;;;7.97;6.33;;;13.70;99.90;;;;;;7376026;19;20163;-77
2023/05/12 05:05:36;;;;;;;7.80;6.90;;;13.80;99.90;;;;;;7388154;19;20156;-79
2023/05/12 05:08:01;;;;;;;8.10;6.93;;;13.70;99.90;;;;;;7385431;19;20162;-78
2023/05/12 05:10:27;;;;;;;11.87;7.63;;;13.80;99.90;;;;;;7387946;19;20138;-79
2023/05/12 05:12:53;;;;;;;9.77;7.30;;;13.80;99.90;;;;;;7372785;19;20780;-81
2023/05/12 05:15:19;;;;;;;11.00;7.97;;;13.70;99.90;;;;;;7369224;19;20146;-76
2023/05/12 05:17:48;;;;;;;9.02;7.10;;;13.60;99.90;;;;;;7367310;19;20146;-77
2023/05/12 05:20:15;;;;;;;9.02;7.50;;;13.80;99.90;;;;;;7380882;19;20178;-77
2023/05/12 05:22:41;;;;;;;8.20;6.73;;;13.70;99.90;;;;;;7385489;19;20209;-78
2023/05/12 05:25:07;;;;;;;7.55;6.38;;;13.70;99.90;;;;;;7388405;19;20583;-78
2023/05/12 05:27:33;;;;;;;8.17;6.70;;;13.70;99.90;;;;;;7388897;19;20626;-79
2023/05/12 05:29:58;;;;;;;8.57;7.28;;;13.80;99.90;;;;;;7389743;19;20131;-77
2023/05/12 05:32:24;;;;;;;8.88;6.93;;;13.80;99.90;;;;;;7389595;19;20142;-78
2023/05/12 05:34:50;;;;;;;8.32;7.15;;;13.80;99.90;;;;;;7388402;19;20230;-77
2023/05/12 05:37:17;;;;;;;9.60;7.77;;;13.80;99.90;;;;;;7388266;19;20160;-77
2023/05/12 05:39:43;;;;;;;9.80;7.60;;;13.90;99.90;;;;;;7386620;19;20150;-77
2023/05/12 05:42:08;;;;;;;9.23;7.70;;;13.90;99.90;;;;;;7376704;19;20147;-84
2023/05/12 05:44:34;;;;;;;9.27;6.70;;;14.00;99.90;;;;;;7383023;19;20223;-79
2023/05/12 05:47:01;;;;;;;9.75;8.07;;;14.00;99.90;;;;;;7378893;19;20576;-81
2023/05/12 05:49:27;;;;;;;9.07;7.47;;;14.00;99.90;;;;;;7378686;19;20619;-80
2023/05/12 05:51:53;;;;;;;8.93;7.32;;;14.20;99.90;;;;;;7382718;19;20237;-80
2023/05/12 05:54:19;;;;;;;11.02;7.85;;;14.00;99.90;;;;;;7383387;19;20222;-80
2023/05/12 05:56:45;;;;;;;11.25;8.73;;;14.10;99.90;;;;;;7382971;19;20502;-80
2023/05/12 05:59:13;;;;;;;9.45;7.65;;;14.00;99.90;;;;;;7388941;19;20579;-80
2023/05/12 06:01:38;;;;;;;10.20;7.05;;;14.10;99.90;;;;;;7374367;19;20711;-80
2023/05/12 06:04:04;;;;;;;7.82;7.00;;;14.10;99.90;;;;;;7377235;19;20142;-80
2023/05/12 06:06:30;;;;;;;8.07;7.00;;;14.20;99.90;;;;;;7374877;19;20625;-81
2023/05/12 06:08:56;;;;;;;8.60;6.53;;;14.10;99.90;;;;;;7387586;19;20145;-81
2023/05/12 06:11:22;;;;;;;10.35;7.28;;;14.00;99.90;;;;;;7387421;19;20135;-81
2023/05/12 06:13:48;;;;;;;8.70;6.90;;;14.00;99.90;;;;;;7386018;19;20135;-80
2023/05/12 06:16:14;;;;;;;9.87;7.53;;;14.10;99.90;;;;;;7383095;19;20158;-79
2023/05/12 06:18:40;;;;;;;9.60;7.20;;;14.10;99.90;;;;;;7367142;19;20642;-81
2023/05/12 06:21:06;;;;;;;7.63;6.47;;;14.20;99.90;;;;;;7384838;19;20139;-81
2023/05/12 06:23:32;;;;;;;9.50;7.35;;;14.20;99.90;;;;;;7384339;19;20138;-80
2023/05/12 06:25:57;;;;;;;9.73;7.23;;;14.20;99.90;;;;;;7383462;19;20474;-81
2023/05/12 06:28:23;;;;;;;14.43;7.23;;;14.30;99.90;;;;;;7388089;19;20131;-80
2023/05/12 06:30:49;;;;;;;11.10;7.82;;;14.20;99.90;;;;;;7388046;19;20134;-81
2023/05/12 06:33:15;;;;;;;9.27;7.30;;;14.20;99.90;;;;;;7374471;19;20135;-81
2023/05/12 06:35:41;;;;;;;7.57;6.60;;;14.20;99.90;;;;;;7379933;19;20158;-80
2023/05/12 06:38:07;;;;;;;7.55;6.60;;;14.30;99.90;;;;;;7378657;19;20154;-79
2023/05/12 06:40:32;;;;;;;7.27;5.97;;;14.30;99.90;;;;;;7386452;19;20190;-82
2023/05/12 06:42:58;;;;;;;9.13;6.18;;;14.30;99.90;;;;;;7386731;19;20150;-80
2023/05/12 06:45:24;;;;;;;9.88;6.03;;;14.30;99.90;;;;;;7387509;19;20138;-80
2023/05/12 06:47:50;;;;;;;7.65;6.65;;;14.30;99.90;;;;;;7385228;19;20227;-80
2023/05/12 06:50:16;;;;;;;7.87;6.07;;;14.40;99.90;;;;;;7379758;19;20163;-83
2023/05/12 06:52:45;;;;;;;7.68;6.05;;;14.50;99.90;;;;;;7380071;19;20257;-79
2023/05/12 06:55:10;;;;;;;6.70;5.88;;;14.70;99.90;;;;;;7378388;19;20662;-79
2023/05/12 06:57:36;;;;;;;7.00;6.07;;;14.60;99.90;;;;;;7373883;19;20142;-79
2023/05/12 07:00:03;;;;;;;6.25;5.40;;;14.10;99.90;;;;;;7384762;19;20138;-80
2023/05/12 07:02:29;;;;;;;6.88;5.68;;;14.30;99.90;;;;;;7383471;19;20146;-79
2023/05/12 07:04:55;;;;;;;7.67;6.57;;;14.30;99.90;;;;;;7385384;19;20478;-79
2023/05/12 07:07:21;;;;;;;7.85;6.35;;;14.30;99.90;;;;;;7369268;19;20592;-79
2023/05/12 07:09:47;;;;;;;7.93;5.65;;;14.40;99.90;;;;;;7384251;19;20135;-79
2023/05/12 07:12:12;;;;;;;6.85;5.40;;;14.70;99.90;;;;;;7387756;19;20135;-79
2023/05/12 07:14:38;;;;;;;9.77;6.97;;;14.80;99.90;;;;;;7382170;19;20142;-80
2023/05/12 07:17:05;;;;;;;7.47;6.18;;;14.90;99.90;;;;;;7388124;19;20146;-79
2023/05/12 07:19:31;;;;;;;6.47;5.78;;;14.90;99.90;;;;;;7379954;19;20139;-78
2023/05/12 07:21:57;;;;;;;7.53;6.50;;;14.90;99.90;;;;;;7377014;19;20125;-78
2023/05/12 07:24:23;;;;;;;6.93;6.20;;;15.00;99.90;;;;;;7384301;19;20126;-77
2023/05/12 07:26:49;;;;;;;6.38;5.47;;;14.90;99.90;;;;;;7383129;19;20494;-78
2023/05/12 07:29:15;;;;;;;6.83;5.73;;;15.00;99.90;;;;;;7383780;19;20138;-79
2023/05/12 07:31:41;;;;;;;6.55;5.38;;;14.80;99.90;;;;;;7384326;19;20242;-78
2023/05/12 07:34:07;;;;;;;8.50;6.00;;;14.90;99.90;;;;;;7382267;19;20135;-77
2023/05/12 07:36:33;;;;;;;6.72;5.30;;;15.00;99.90;;;;;;7366966;19;20127;-78
2023/05/12 07:38:58;;;;;;;6.07;5.00;;;15.00;99.90;;;;;;7381185;19;20131;-77
2023/05/12 07:41:25;;;;;;;7.22;5.05;;;15.00;99.90;;;;;;7381936;19;20130;-77
2023/05/12 07:43:51;;;;;;;7.25;4.50;;;14.50;99.90;;;;;;7375153;19;20135;-78
2023/05/12 07:46:16;;;;;;;8.23;5.03;;;14.80;99.90;;;;;;7381977;19;20131;-79
2023/05/12 07:48:43;;;;;;;5.03;4.20;;;15.10;99.90;;;;;;7385683;19;20150;-78
2023/05/12 07:51:08;;;;;;;8.13;4.50;;;15.10;99.90;;;;;;7391108;19;20131;-78
2023/05/12 07:53:34;;;;;;;9.32;5.00;;;15.30;99.90;;;;;;7389934;19;20133;-76
2023/05/12 07:56:00;;;;;;;6.07;4.55;;;15.20;99.90;;;;;;7381233;19;20206;-77
2023/05/12 07:58:26;;;;;;;5.35;4.82;;;15.10;99.90;;;;;;7390774;19;20126;-77
2023/05/12 08:00:53;;;;;;;5.65;4.53;;;15.20;99.90;;;;;;7393000;19;20140;-77
2023/05/12 08:03:19;;;;;;;6.38;4.18;;;15.20;99.90;;;;;;7390757;19;20583;-77
2023/05/12 08:05:45;;;;;;;4.95;4.28;;;15.20;99.90;;;;;;7390918;19;20575;-77
2023/05/12 08:08:15;;;;;;;4.25;3.85;;;15.30;99.90;;;;;;7390650;19;20166;-77
2023/05/12 08:10:44;;;;;;;4.78;4.05;;;15.50;99.90;;;;;;7391541;19;20138;-75
2023/05/12 08:13:10;;;;;;;6.57;4.15;;;15.70;99.90;;;;;;7388698;19;20157;-77
2023/05/12 08:15:37;;;;;;;4.43;3.97;;;15.70;99.90;;;;;;7384996;19;20131;-77
2023/05/12 08:18:03;;;;;;;4.13;3.47;;;15.70;99.90;;;;;;7372958;19;20142;-76
2023/05/12 08:20:30;;;;;;;4.95;4.18;;;15.80;99.90;;;;;;7373963;19;20138;-77
2023/05/12 08:22:56;;;;;;;4.35;3.30;;;15.80;99.90;;;;;;7387816;19;20138;-77
2023/05/12 08:25:22;;;;;;;4.57;3.25;;;16.00;99.90;;;;;;7371775;19;20165;-77
2023/05/12 08:27:48;;;;;;;3.70;3.03;;;16.10;99.90;;;;;;7387679;19;20222;-75
2023/05/12 08:30:14;;;;;;;4.82;3.20;;;15.90;99.90;;;;;;7375721;19;20130;-76
2023/05/12 08:32:40;;;;;;;4.97;3.33;;;15.90;99.90;;;;;;7390099;19;20150;-76
2023/05/12 08:35:06;;;;;;;4.03;3.35;;;15.70;99.90;;;;;;7388433;19;20122;-76
2023/05/12 08:37:32;;;;;;;4.88;3.65;;;15.90;99.90;;;;;;7388155;19;20151;-76
2023/05/12 08:39:58;;;;;;;4.50;4.05;;;15.80;99.90;;;;;;7380383;19;20134;-76
2023/05/12 08:42:54;;;;;;;4.53;3.75;;;16.00;99.90;;;;;;7377607;19;20130;-76
2023/05/12 08:45:21;;;;;;;3.63;3.33;;;16.20;99.90;;;;;;7377880;19;20594;-76
2023/05/12 08:47:50;;;;;;;5.60;3.40;;;16.40;99.90;;;;;;7368855;19;20138;-75
2023/05/12 08:50:20;;;;;;;4.13;2.70;;;16.30;99.90;;;;;;7365408;19;20130;-78
2023/05/12 08:52:46;;;;;;;4.07;2.95;;;16.30;99.90;;;;;;7382599;19;20238;-79
2023/05/12 08:55:13;;;;;;;3.47;2.80;;;16.20;99.90;;;;;;7383358;19;20162;-79
2023/05/12 08:57:47;;;;;;;3.25;2.78;;;16.20;99.90;;;;;;7384269;19;20150;-79
2023/05/12 09:00:14;;;;;;;4.30;3.90;;;16.30;99.90;;;;;;7389531;19;20153;-79
2023/05/12 09:02:41;;;;;;;3.33;2.95;;;16.40;99.90;;;;;;7386673;19;20138;-77
2023/05/12 09:05:08;;;;;;;3.25;2.95;;;16.50;99.90;;;;;;7389220;19;20499;-77
2023/05/12 09:07:38;;;;;;;4.07;3.28;;;16.60;99.90;;;;;;7377694;19;21343;-76
2023/05/12 09:10:10;;;;;;;4.25;2.70;;;16.50;99.90;;;;;;7385731;19;20130;-79
2023/05/12 09:12:36;;;;;;;2.88;2.67;;;16.50;99.90;;;;;;7368931;19;20510;-77
2023/05/12 09:15:07;;;;;;;3.55;3.25;;;16.50;99.90;;;;;;7386149;19;20198;-77
2023/05/12 09:17:34;;;;;;;3.80;3.40;;;16.60;99.90;;;;;;7383711;19;20214;-77
2023/05/12 09:20:03;;;;;;;4.07;3.67;;;16.50;99.90;;;;;;7381174;19;20161;-76
2023/05/12 09:22:35;;;;;;;3.75;3.40;;;16.40;99.90;;;;;;7384305;19;20126;-77
2023/05/12 09:25:17;;;;;;;4.45;3.42;;;16.30;99.90;;;;;;7380973;19;20182;-76
2023/05/12 09:27:46;;;;;;;3.30;3.00;;;16.30;99.90;;;;;;7383801;19;20142;-76
2023/05/12 09:30:14;;;;;;;3.50;3.20;;;16.20;99.90;;;;;;7378618;19;20134;-76
2023/05/12 09:32:40;;;;;;;3.58;2.90;;;16.30;99.90;;;;;;7387376;19;20150;-76
2023/05/12 09:35:10;;;;;;;3.55;3.10;;;16.10;99.90;;;;;;7381440;19;20206;-77
2023/05/12 09:37:38;;;;;;;4.15;3.75;;;16.20;99.90;;;;;;7369861;19;20126;-76
2023/05/12 09:40:06;;;;;;;3.30;3.00;;;16.30;99.90;;;;;;7391925;19;20130;-76
2023/05/12 09:42:34;;;;;;;3.38;3.05;;;16.40;99.90;;;;;;7386871;19;20157;-77
2023/05/12 09:45:10;;;;;;;3.70;3.15;;;16.40;99.90;;;;;;7390089;19;20702;-78
2023/05/12 09:47:38;;;;;;;3.38;3.08;;;16.50;99.90;;;;;;7379467;19;20134;-78
2023/05/12 09:50:06;;;;;;;3.10;2.80;;;16.60;99.90;;;;;;7371848;19;20149;-76
2023/05/12 09:52:36;;;;;;;2.85;2.65;;;16.70;99.90;;;;;;7381707;19;20143;-77
2023/05/12 09:55:10;;;;;;;4.78;3.00;;;16.80;99.90;;;;;;7387223;19;20159;-77
2023/05/12 09:57:40;;;;;;;3.50;3.10;;;16.80;99.90;;;;;;7385211;19;20146;-77
2023/05/12 10:00:08;;;;;;;2.90;2.60;;;16.80;99.90;;;;;;7389643;19;20139;-77
2023/05/12 10:02:36;;;;;;;3.53;2.80;;;16.90;99.90;;;;;;7380066;19;21651;-76
2023/05/12 10:05:05;;;;;;;2.45;2.25;;;16.90;99.90;;;;;;7385216;19;20134;-76
2023/05/12 10:07:32;;;;;;;3.28;2.50;;;17.00;99.90;;;;;;7386653;19;20597;-77
2023/05/12 10:10:00;;;;;;;2.85;2.53;;;17.00;99.90;;;;;;7386529;19;20197;-76
2023/05/12 10:12:27;;;;;;;5.68;2.55;;;16.80;99.90;;;;;;7388078;19;20502;-77
2023/05/12 10:14:53;;;;;;;3.00;2.70;;;16.70;99.90;;;;;;7390026;19;20229;-75
2023/05/12 10:17:20;;;;;;;2.63;2.42;;;16.70;99.90;;;;;;7377000;19;20133;-75
2023/05/12 10:19:48;;;;;;;2.40;2.20;;;16.70;99.90;;;;;;7385224;19;20255;-75
2023/05/12 10:22:16;;;;;;;3.22;2.53;;;16.70;99.90;;;;;;7389394;19;20150;-76
2023/05/12 10:24:42;;;;;;;2.53;1.92;;;16.70;99.90;;;;;;7377645;19;20198;-76
2023/05/12 10:27:09;;;;;;;2.50;2.30;;;16.80;99.90;;;;;;7383973;19;20139;-77
2023/05/12 10:29:38;;;;;;;2.80;2.28;;;16.80;99.90;;;;;;7376426;19;20127;-76
2023/05/12 10:32:05;;;;;;;2.70;2.13;;;16.80;99.90;;;;;;7383273;19;20131;-77
2023/05/12 10:34:36;;;;;;;2.20;2.00;;;16.90;99.90;;;;;;7381625;19;20130;-73
2023/05/12 10:37:08;;;;;;;3.08;2.10;;;17.00;99.90;;;;;;7365426;19;20130;-76
2023/05/12 10:39:34;;;;;;;2.30;1.80;;;17.10;99.90;;;;;;7374632;19;20146;-76
2023/05/12 10:42:07;;;;;;;2.83;2.13;;;17.20;99.90;;;;;;7385283;19;20591;-75
2023/05/12 10:44:37;;;;;;;1.92;1.75;;;17.30;99.90;;;;;;7385341;19;20154;-77
2023/05/12 10:47:16;;;;;;;2.25;1.98;;;17.20;99.90;;;;;;7384177;19;20218;-76
2023/05/12 10:49:42;;;;;;;2.38;2.15;;;17.20;99.90;;;;;;7381920;19;20169;-76
2023/05/12 10:52:19;;;;;;;3.40;3.10;;;17.20;99.90;;;;;;7379142;19;20160;-76
2023/05/12 10:54:46;;;;;;;4.55;3.05;;;17.00;99.90;;;;;;7371188;19;20130;-76
2023/05/12 10:57:19;;;;;;;4.30;2.35;;;16.90;99.90;;;;;;7381324;19;20138;-77
2023/05/12 10:59:49;;;;;;;3.03;2.38;;;16.70;99.90;;;;;;7381870;19;20154;-78
2023/05/12 11:02:17;;;;;;;3.55;2.20;;;16.80;99.90;;;;;;7374904;19;20262;-77
2023/05/12 11:04:49;;;;;;;2.25;2.00;;;16.80;99.90;;;;;;7385668;19;20169;-77
2023/05/12 11:07:19;;;;;;;2.63;2.42;;;16.60;99.90;;;;;;7372505;19;20611;-76
2023/05/12 11:09:47;;;;;;;2.60;2.40;;;16.60;99.90;;;;;;7386522;19;20138;-77
2023/05/12 11:12:13;;;;;;;3.10;2.17;;;16.60;99.90;;;;;;7388070;19;20242;-77
2023/05/12 11:14:42;;;;;;;3.35;2.40;;;16.50;99.90;;;;;;7388205;19;20529;-77
2023/05/12 11:17:08;;;;;;;2.92;2.25;;;16.50;99.90;;;;;;7388503;19;20155;-77
2023/05/12 11:19:34;;;;;;;2.17;1.88;;;16.40;99.90;;;;;;7383151;19;20157;-76
2023/05/12 11:22:09;;;;;;;2.80;1.85;;;16.40;99.90;;;;;;7383597;19;20142;-77
2023/05/12 11:24:36;;;;;;;2.17;1.88;;;16.30;99.90;;;;;;7385179;19;20152;-78
2023/05/12 11:27:03;;;;;;;1.98;1.88;;;16.20;99.90;;;;;;7379684;19;20138;-79
2023/05/12 11:29:29;;;;;;;3.60;1.65;;;16.20;99.90;;;;;;7364853;19;20151;-79
2023/05/12 11:31:55;;;;;;;3.72;2.40;;;16.30;99.90;;;;;;7384924;19;20138;-78
2023/05/12 11:34:22;;;;;;;2.50;2.28;;;16.30;99.90;;;;;;7385550;19;20133;-78
2023/05/12 11:36:51;;;;;;;3.40;2.28;;;16.30;99.90;;;;;;7382178;19;20583;-77
2023/05/12 11:39:22;;;;;;;2.53;2.33;;;16.30;99.90;;;;;;7378182;19;20169;-79
2023/05/12 11:41:49;;;;;;;4.25;2.30;;;16.40;99.90;;;;;;7383204;19;20639;-80
2023/05/12 11:44:16;;;;;;;2.40;2.20;;;16.20;99.90;;;;;;7382124;19;20146;-80
2023/05/12 11:47:11;;;;;;;3.05;2.35;;;16.30;99.90;;;;;;7383664;19;20138;-79
2023/05/12 11:49:52;;;;;;;2.95;2.28;;;16.20;99.90;;;;;;7383057;19;20147;-79
2023/05/12 11:52:19;;;;;;;2.83;2.50;;;16.20;99.90;;;;;;7385590;19;20641;-80
2023/05/12 11:54:55;;;;;;;3.08;2.25;;;16.30;99.90;;;;;;7384440;19;20130;-80
2023/05/12 11:57:29;;;;;;;2.25;1.80;;;16.40;99.90;;;;;;7382790;19;20258;-79
2023/05/12 12:00:03;;;;;;;2.70;2.20;;;16.40;99.90;;;;;;7372528;19;20135;-80
2023/05/12 12:02:29;;;;;;;2.10;1.90;;;16.30;99.90;;;;;;7365318;19;20178;-78
2023/05/12 12:04:55;;;;;;;1.98;1.80;;;16.10;99.90;;;;;;7364791;19;20247;-77
2023/05/12 12:07:32;;;;;;;1.90;1.70;;;16.30;99.90;;;;;;7380947;19;20127;-80
2023/05/12 12:09:58;;;;;;;2.20;2.00;;;16.30;99.90;;;;;;7385540;19;20143;-80
2023/05/12 12:12:24;;;;;;;2.22;1.77;;;16.40;99.90;;;;;;7385705;19;20155;-80
2023/05/12 12:14:50;;;;;;;2.97;2.13;;;16.50;99.90;;;;;;7383652;19;20142;-80
2023/05/12 12:17:16;;;;;;;2.53;2.00;;;16.50;99.90;;;;;;7387313;19;20164;-79
2023/05/12 12:19:42;;;;;;;2.50;2.20;;;16.70;99.90;;;;;;7380919;19;20181;-81
2023/05/12 12:22:07;;;;;;;2.70;2.50;;;16.80;99.90;;;;;;7392879;19;20216;-79
2023/05/12 12:24:33;;;;;;;3.20;2.42;;;16.90;99.90;;;;;;7386354;19;20138;-79
2023/05/12 12:26:59;;;;;;;2.60;2.35;;;16.90;99.90;;;;;;7394122;19;20150;-78
2023/05/12 12:29:27;;;;;;;3.38;2.33;;;17.00;99.90;;;;;;7407430;19;20158;-79
2023/05/12 12:31:52;;;;;;;4.97;3.05;;;17.10;99.90;;;;;;7394803;19;20610;-80
2023/05/12 12:34:20;;;;;;;2.47;2.28;;;17.30;99.90;;;;;;7397935;19;20134;-79
2023/05/12 12:36:46;;;;;;;2.00;1.90;;;17.30;99.90;;;;;;7393684;19;20150;-80
2023/05/12 12:39:13;;;;;;;3.35;2.30;;;17.40;99.90;;;;;;7391444;19;20143;-79
2023/05/12 12:41:39;;;;;;;2.95;2.20;;;17.50;99.90;;;;;;7390990;19;20147;-79
2023/05/12 12:44:05;;;;;;;2.25;2.05;;;17.60;99.90;;;;;;7392626;19;20240;-80